Chang Sheng — V3PK — position and weather

sailwx.info

Track history (hours):
 
Tides and Currents Weather Stations Pressure Air Temp Water Temp Dewpoint Dewpoint Depression Visibility Wind Speed Wind Dir Waves Ship Positions

Chang Sheng

Last reported at 2017-Jan-17 03:30 UTC. Time now 2017-Jan-17 04:58 UTC.
Position N 34°42' E 135°24'.

Length 86 m; draft 4.8 m.

Type: Cargo ship. MMSI: 312161000.

Date/timePositionNaut miles runAvg speedWind from/ knotsBaromVisibWave heightAir tempDewpointWater temp
2017-Jan-17 03:30N 34°42' E 135°24'0 0.0
2017-Jan-17 02:24N 34°42' E 135°24'0 0.0
2017-Jan-17 01:30N 34°42' E 135°24'0 0.0
2017-Jan-17 00:24N 34°42' E 135°24'0 0.0
2017-Jan-16 22:33N 34°42' E 135°24'4 3.2
2017-Jan-16 21:23N 34°40' E 135°20'0 0.1
2017-Jan-16 20:29N 34°40' E 135°20'0 0.0
2017-Jan-16 19:23N 34°40' E 135°20'0 0.0
2017-Jan-16 18:17N 34°40' E 135°20'0 0.1
2017-Jan-16 17:29N 34°40' E 135°20'0 0.0
2017-Jan-16 16:29N 34°40' E 135°20'0 0.0
2017-Jan-16 15:29N 34°40' E 135°20'0 0.0
2017-Jan-16 14:10N 34°40' E 135°20'0 0.1
2017-Jan-16 13:28N 34°40' E 135°20'0 0.4
2017-Jan-16 12:33N 34°39' E 135°20'9 8.6
2017-Jan-16 11:33N 34°35' E 135°11'1010.0
2017-Jan-16 10:31N 34°37' E 134°58'  
2017-Jan-11 22:19N 37°45' E 121°49'7 9.8
2017-Jan-11 21:34N 37°48' E 121°40'10 9.8
2017-Jan-11 20:34N 37°51' E 121°28'10 9.7
2017-Jan-11 19:34N 37°53' E 121°17'  
2017-Jan-07 04:32N 37°56' E 121°14'9 9.0
2017-Jan-07 03:33N 37°47' E 121°17'  
Track history (hours):
 
Tides and Currents Weather Stations Pressure Air Temp Water Temp Dewpoint Dewpoint Depression Visibility Wind Speed Wind Dir Waves Ship Positions

Chang Sheng

Last reported at 2017-Jan-17 03:30 UTC. Time now 2017-Jan-17 04:58 UTC.
Position N 34°42' E 135°24'.

Length 86 m; draft 4.8 m.

Type: Cargo ship. MMSI: 312161000.

Date/timePositionNaut miles runAvg speedWind from/ knotsBaromVisibWave heightAir tempDewpointWater temp
2017-Jan-17 03:30N 34°42' E 135°24'0 0.0
2017-Jan-17 02:24N 34°42' E 135°24'0 0.0
2017-Jan-17 01:30N 34°42' E 135°24'0 0.0
2017-Jan-17 00:24N 34°42' E 135°24'0 0.0
2017-Jan-16 22:33N 34°42' E 135°24'4 3.2
2017-Jan-16 21:23N 34°40' E 135°20'0 0.1
2017-Jan-16 20:29N 34°40' E 135°20'0 0.0
2017-Jan-16 19:23N 34°40' E 135°20'0 0.0
2017-Jan-16 18:17N 34°40' E 135°20'0 0.1
2017-Jan-16 17:29N 34°40' E 135°20'0 0.0
2017-Jan-16 16:29N 34°40' E 135°20'0 0.0
2017-Jan-16 15:29N 34°40' E 135°20'0 0.0
2017-Jan-16 14:10N 34°40' E 135°20'0 0.1
2017-Jan-16 13:28N 34°40' E 135°20'0 0.4
2017-Jan-16 12:33N 34°39' E 135°20'9 8.6
2017-Jan-16 11:33N 34°35' E 135°11'1010.0
2017-Jan-16 10:31N 34°37' E 134°58'  
2017-Jan-11 22:19N 37°45' E 121°49'7 9.8
2017-Jan-11 21:34N 37°48' E 121°40'10 9.8
2017-Jan-11 20:34N 37°51' E 121°28'10 9.7
2017-Jan-11 19:34N 37°53' E 121°17'  
2017-Jan-07 04:32N 37°56' E 121°14'9 9.0
2017-Jan-07 03:33N 37°47' E 121°17'  

Dump ship's entire track history